sensor_id;sensor_type;location;lat;lon;timestamp;P1;durP1;ratioP1;P2;durP2;ratioP2
52208;SDS011;38507;53.132;6.394;2023-05-21T00:00:48;9.95;;;3.17;;
52208;SDS011;38507;53.132;6.394;2023-05-21T00:03:15;6.18;;;2.70;;
52208;SDS011;38507;53.132;6.394;2023-05-21T00:05:42;7.20;;;3.00;;
52208;SDS011;38507;53.132;6.394;2023-05-21T00:08:11;10.32;;;3.22;;
52208;SDS011;38507;53.132;6.394;2023-05-21T00:10:36;10.60;;;3.30;;
52208;SDS011;38507;53.132;6.394;2023-05-21T00:13:02;8.50;;;3.05;;
52208;SDS011;38507;53.132;6.394;2023-05-21T00:15:28;4.63;;;2.90;;
52208;SDS011;38507;53.132;6.394;2023-05-21T00:17:53;5.70;;;3.38;;
52208;SDS011;38507;53.132;6.394;2023-05-21T00:20:19;4.75;;;2.97;;
52208;SDS011;38507;53.132;6.394;2023-05-21T00:22:45;6.85;;;3.40;;
52208;SDS011;38507;53.132;6.394;2023-05-21T00:25:12;8.25;;;3.08;;
52208;SDS011;38507;53.132;6.394;2023-05-21T00:27:37;5.20;;;3.20;;
52208;SDS011;38507;53.132;6.394;2023-05-21T00:30:03;7.80;;;3.03;;
52208;SDS011;38507;53.132;6.394;2023-05-21T00:32:29;11.48;;;3.35;;
52208;SDS011;38507;53.132;6.394;2023-05-21T00:34:55;4.53;;;2.95;;
52208;SDS011;38507;53.132;6.394;2023-05-21T00:37:22;5.30;;;3.53;;
52208;SDS011;38507;53.132;6.394;2023-05-21T00:39:48;7.28;;;3.53;;
52208;SDS011;38507;53.132;6.394;2023-05-21T00:42:15;7.97;;;3.60;;
52208;SDS011;38507;53.132;6.394;2023-05-21T00:44:42;5.53;;;3.05;;
52208;SDS011;38507;53.132;6.394;2023-05-21T00:47:09;8.30;;;3.20;;
52208;SDS011;38507;53.132;6.394;2023-05-21T00:49:36;6.35;;;3.03;;
52208;SDS011;38507;53.132;6.394;2023-05-21T00:52:02;5.47;;;3.08;;
52208;SDS011;38507;53.132;6.394;2023-05-21T00:54:28;6.07;;;3.17;;
52208;SDS011;38507;53.132;6.394;2023-05-21T00:56:54;8.57;;;3.47;;
52208;SDS011;38507;53.132;6.394;2023-05-21T00:59:20;7.88;;;3.40;;
52208;SDS011;38507;53.132;6.394;2023-05-21T01:01:47;7.95;;;3.30;;
52208;SDS011;38507;53.132;6.394;2023-05-21T01:04:23;6.85;;;3.10;;
52208;SDS011;38507;53.132;6.394;2023-05-21T01:06:48;9.45;;;3.30;;
52208;SDS011;38507;53.132;6.394;2023-05-21T01:09:14;7.50;;;3.13;;
52208;SDS011;38507;53.132;6.394;2023-05-21T01:11:42;7.28;;;3.40;;
52208;SDS011;38507;53.132;6.394;2023-05-21T01:14:11;13.15;;;3.80;;
52208;SDS011;38507;53.132;6.394;2023-05-21T01:16:39;8.65;;;3.50;;
52208;SDS011;38507;53.132;6.394;2023-05-21T01:19:09;6.00;;;3.13;;
52208;SDS011;38507;53.132;6.394;2023-05-21T01:21:40;7.78;;;3.50;;
52208;SDS011;38507;53.132;6.394;2023-05-21T01:24:09;6.78;;;3.35;;
52208;SDS011;38507;53.132;6.394;2023-05-21T01:26:35;8.20;;;3.88;;
52208;SDS011;38507;53.132;6.394;2023-05-21T01:29:06;6.35;;;3.28;;
52208;SDS011;38507;53.132;6.394;2023-05-21T01:31:41;8.55;;;3.58;;
52208;SDS011;38507;53.132;6.394;2023-05-21T01:36:42;7.65;;;3.33;;
52208;SDS011;38507;53.132;6.394;2023-05-21T01:39:20;8.30;;;3.60;;
52208;SDS011;38507;53.132;6.394;2023-05-21T01:41:51;5.55;;;3.47;;
52208;SDS011;38507;53.132;6.394;2023-05-21T01:44:18;7.57;;;3.63;;
52208;SDS011;38507;53.132;6.394;2023-05-21T01:46:46;8.68;;;3.92;;
52208;SDS011;38507;53.132;6.394;2023-05-21T01:49:11;6.50;;;3.28;;
52208;SDS011;38507;53.132;6.394;2023-05-21T01:51:38;6.82;;;3.75;;
52208;SDS011;38507;53.132;6.394;2023-05-21T01:54:04;9.23;;;3.67;;
52208;SDS011;38507;53.132;6.394;2023-05-21T01:56:30;6.47;;;3.65;;
52208;SDS011;38507;53.132;6.394;2023-05-21T01:58:58;6.95;;;3.53;;
52208;SDS011;38507;53.132;6.394;2023-05-21T02:01:24;8.48;;;3.92;;
52208;SDS011;38507;53.132;6.394;2023-05-21T02:03:50;7.90;;;4.07;;
52208;SDS011;38507;53.132;6.394;2023-05-21T02:06:16;9.20;;;3.80;;
52208;SDS011;38507;53.132;6.394;2023-05-21T02:08:42;8.35;;;3.70;;
52208;SDS011;38507;53.132;6.394;2023-05-21T02:11:09;9.77;;;4.05;;
52208;SDS011;38507;53.132;6.394;2023-05-21T02:13:35;6.35;;;3.67;;
52208;SDS011;38507;53.132;6.394;2023-05-21T02:16:06;7.15;;;4.22;;
52208;SDS011;38507;53.132;6.394;2023-05-21T02:18:35;8.93;;;4.28;;
52208;SDS011;38507;53.132;6.394;2023-05-21T02:21:04;9.77;;;4.82;;
52208;SDS011;38507;53.132;6.394;2023-05-21T02:23:29;6.82;;;3.70;;
52208;SDS011;38507;53.132;6.394;2023-05-21T02:25:55;10.65;;;4.55;;
52208;SDS011;38507;53.132;6.394;2023-05-21T02:28:20;8.25;;;4.30;;
52208;SDS011;38507;53.132;6.394;2023-05-21T02:30:47;10.68;;;5.07;;
52208;SDS011;38507;53.132;6.394;2023-05-21T02:33:16;9.65;;;4.40;;
52208;SDS011;38507;53.132;6.394;2023-05-21T02:35:43;10.60;;;4.55;;
52208;SDS011;38507;53.132;6.394;2023-05-21T02:38:09;7.38;;;4.30;;
52208;SDS011;38507;53.132;6.394;2023-05-21T02:40:37;8.02;;;4.43;;
52208;SDS011;38507;53.132;6.394;2023-05-21T02:43:03;8.05;;;4.70;;
52208;SDS011;38507;53.132;6.394;2023-05-21T02:45:29;8.07;;;4.40;;
52208;SDS011;38507;53.132;6.394;2023-05-21T02:47:55;8.38;;;4.93;;
52208;SDS011;38507;53.132;6.394;2023-05-21T02:50:20;9.18;;;5.30;;
52208;SDS011;38507;53.132;6.394;2023-05-21T02:52:47;8.98;;;4.65;;
52208;SDS011;38507;53.132;6.394;2023-05-21T02:55:12;9.30;;;4.82;;
52208;SDS011;38507;53.132;6.394;2023-05-21T02:57:38;8.20;;;4.70;;
52208;SDS011;38507;53.132;6.394;2023-05-21T03:00:04;6.93;;;4.55;;
52208;SDS011;38507;53.132;6.394;2023-05-21T03:02:31;6.28;;;4.40;;
52208;SDS011;38507;53.132;6.394;2023-05-21T03:04:57;9.30;;;4.60;;
52208;SDS011;38507;53.132;6.394;2023-05-21T03:07:22;8.43;;;4.72;;
52208;SDS011;38507;53.132;6.394;2023-05-21T03:09:48;10.63;;;5.15;;
52208;SDS011;38507;53.132;6.394;2023-05-21T03:12:14;12.00;;;5.00;;
52208;SDS011;38507;53.132;6.394;2023-05-21T03:14:39;9.98;;;4.95;;
52208;SDS011;38507;53.132;6.394;2023-05-21T03:17:11;13.77;;;5.55;;
52208;SDS011;38507;53.132;6.394;2023-05-21T03:19:40;11.35;;;5.05;;
52208;SDS011;38507;53.132;6.394;2023-05-21T03:22:07;9.90;;;4.70;;
52208;SDS011;38507;53.132;6.394;2023-05-21T03:24:32;12.68;;;5.53;;
52208;SDS011;38507;53.132;6.394;2023-05-21T03:26:59;13.88;;;5.57;;
52208;SDS011;38507;53.132;6.394;2023-05-21T03:29:30;9.07;;;5.15;;
52208;SDS011;38507;53.132;6.394;2023-05-21T03:31:56;11.13;;;5.07;;
52208;SDS011;38507;53.132;6.394;2023-05-21T03:34:22;9.40;;;4.78;;
52208;SDS011;38507;53.132;6.394;2023-05-21T03:36:48;14.57;;;6.07;;
52208;SDS011;38507;53.132;6.394;2023-05-21T03:39:14;9.88;;;5.57;;
52208;SDS011;38507;53.132;6.394;2023-05-21T03:41:40;11.65;;;5.53;;
52208;SDS011;38507;53.132;6.394;2023-05-21T03:44:06;7.85;;;5.35;;
52208;SDS011;38507;53.132;6.394;2023-05-21T03:46:32;10.10;;;5.38;;
52208;SDS011;38507;53.132;6.394;2023-05-21T03:48:57;10.63;;;5.90;;
52208;SDS011;38507;53.132;6.394;2023-05-21T03:51:23;12.50;;;5.95;;
52208;SDS011;38507;53.132;6.394;2023-05-21T03:53:49;13.00;;;6.88;;
52208;SDS011;38507;53.132;6.394;2023-05-21T03:56:16;11.82;;;5.70;;
52208;SDS011;38507;53.132;6.394;2023-05-21T03:58:42;13.13;;;6.50;;
52208;SDS011;38507;53.132;6.394;2023-05-21T04:01:07;11.75;;;5.55;;
52208;SDS011;38507;53.132;6.394;2023-05-21T04:03:34;15.50;;;6.35;;
52208;SDS011;38507;53.132;6.394;2023-05-21T04:06:01;14.30;;;6.32;;
52208;SDS011;38507;53.132;6.394;2023-05-21T04:08:27;10.90;;;5.43;;
52208;SDS011;38507;53.132;6.394;2023-05-21T04:10:52;15.68;;;5.53;;
52208;SDS011;38507;53.132;6.394;2023-05-21T04:13:18;11.30;;;5.93;;
52208;SDS011;38507;53.132;6.394;2023-05-21T04:15:43;11.43;;;6.03;;
52208;SDS011;38507;53.132;6.394;2023-05-21T04:18:10;10.25;;;5.60;;
52208;SDS011;38507;53.132;6.394;2023-05-21T04:20:37;15.32;;;6.82;;
52208;SDS011;38507;53.132;6.394;2023-05-21T04:23:03;12.02;;;5.47;;
52208;SDS011;38507;53.132;6.394;2023-05-21T04:25:29;12.48;;;6.20;;
52208;SDS011;38507;53.132;6.394;2023-05-21T04:27:55;10.98;;;5.20;;
52208;SDS011;38507;53.132;6.394;2023-05-21T04:30:21;10.90;;;5.03;;
52208;SDS011;38507;53.132;6.394;2023-05-21T04:32:47;12.45;;;5.93;;
52208;SDS011;38507;53.132;6.394;2023-05-21T04:35:13;11.90;;;5.05;;
52208;SDS011;38507;53.132;6.394;2023-05-21T04:37:39;10.85;;;5.20;;
52208;SDS011;38507;53.132;6.394;2023-05-21T04:40:09;9.20;;;5.00;;
52208;SDS011;38507;53.132;6.394;2023-05-21T04:42:35;11.68;;;4.97;;
52208;SDS011;38507;53.132;6.394;2023-05-21T04:45:01;10.20;;;5.28;;
52208;SDS011;38507;53.132;6.394;2023-05-21T04:47:27;10.77;;;4.60;;
52208;SDS011;38507;53.132;6.394;2023-05-21T04:49:54;10.93;;;4.38;;
52208;SDS011;38507;53.132;6.394;2023-05-21T04:52:20;10.93;;;4.60;;
52208;SDS011;38507;53.132;6.394;2023-05-21T04:54:45;9.88;;;4.72;;
52208;SDS011;38507;53.132;6.394;2023-05-21T04:57:11;12.77;;;4.50;;
52208;SDS011;38507;53.132;6.394;2023-05-21T04:59:37;9.65;;;4.20;;
52208;SDS011;38507;53.132;6.394;2023-05-21T05:02:04;16.92;;;5.10;;
52208;SDS011;38507;53.132;6.394;2023-05-21T05:04:30;12.95;;;4.25;;
52208;SDS011;38507;53.132;6.394;2023-05-21T05:06:56;9.88;;;4.28;;
52208;SDS011;38507;53.132;6.394;2023-05-21T05:09:21;14.38;;;4.45;;
52208;SDS011;38507;53.132;6.394;2023-05-21T05:11:49;12.23;;;4.25;;
52208;SDS011;38507;53.132;6.394;2023-05-21T05:14:15;11.75;;;4.15;;
52208;SDS011;38507;53.132;6.394;2023-05-21T05:16:40;11.35;;;4.60;;
52208;SDS011;38507;53.132;6.394;2023-05-21T05:19:06;10.85;;;3.90;;
52208;SDS011;38507;53.132;6.394;2023-05-21T05:21:32;7.47;;;4.10;;
52208;SDS011;38507;53.132;6.394;2023-05-21T05:23:58;9.95;;;4.20;;
52208;SDS011;38507;53.132;6.394;2023-05-21T05:26:25;9.57;;;3.80;;
52208;SDS011;38507;53.132;6.394;2023-05-21T05:28:50;8.90;;;4.18;;
52208;SDS011;38507;53.132;6.394;2023-05-21T05:31:16;11.10;;;4.20;;
52208;SDS011;38507;53.132;6.394;2023-05-21T05:33:42;12.88;;;4.15;;
52208;SDS011;38507;53.132;6.394;2023-05-21T05:36:07;12.90;;;5.32;;
52208;SDS011;38507;53.132;6.394;2023-05-21T05:38:33;14.20;;;4.47;;
52208;SDS011;38507;53.132;6.394;2023-05-21T05:40:59;12.07;;;4.25;;
52208;SDS011;38507;53.132;6.394;2023-05-21T05:43:25;9.50;;;4.05;;
52208;SDS011;38507;53.132;6.394;2023-05-21T05:45:51;9.00;;;4.13;;
52208;SDS011;38507;53.132;6.394;2023-05-21T05:48:17;9.50;;;4.35;;
52208;SDS011;38507;53.132;6.394;2023-05-21T05:50:42;9.10;;;3.60;;
52208;SDS011;38507;53.132;6.394;2023-05-21T05:53:09;9.68;;;4.18;;
52208;SDS011;38507;53.132;6.394;2023-05-21T05:55:37;10.95;;;3.83;;
52208;SDS011;38507;53.132;6.394;2023-05-21T05:58:03;10.00;;;3.92;;
52208;SDS011;38507;53.132;6.394;2023-05-21T06:00:29;12.45;;;3.85;;
52208;SDS011;38507;53.132;6.394;2023-05-21T06:02:55;9.15;;;4.32;;
52208;SDS011;38507;53.132;6.394;2023-05-21T06:05:21;11.75;;;3.70;;
52208;SDS011;38507;53.132;6.394;2023-05-21T06:07:46;10.02;;;3.92;;
52208;SDS011;38507;53.132;6.394;2023-05-21T06:10:12;10.32;;;3.72;;
52208;SDS011;38507;53.132;6.394;2023-05-21T06:12:38;14.77;;;4.05;;
52208;SDS011;38507;53.132;6.394;2023-05-21T06:15:04;8.77;;;3.78;;
52208;SDS011;38507;53.132;6.394;2023-05-21T06:17:30;7.85;;;3.63;;
52208;SDS011;38507;53.132;6.394;2023-05-21T06:19:56;9.68;;;3.83;;
52208;SDS011;38507;53.132;6.394;2023-05-21T06:22:21;7.03;;;3.50;;
52208;SDS011;38507;53.132;6.394;2023-05-21T06:24:47;13.55;;;4.00;;
52208;SDS011;38507;53.132;6.394;2023-05-21T06:27:13;8.35;;;3.88;;
52208;SDS011;38507;53.132;6.394;2023-05-21T06:29:38;11.75;;;4.10;;
52208;SDS011;38507;53.132;6.394;2023-05-21T06:32:05;8.43;;;4.07;;
52208;SDS011;38507;53.132;6.394;2023-05-21T06:34:32;8.23;;;3.53;;
52208;SDS011;38507;53.132;6.394;2023-05-21T06:36:57;10.13;;;3.90;;
52208;SDS011;38507;53.132;6.394;2023-05-21T06:39:23;9.07;;;3.95;;
52208;SDS011;38507;53.132;6.394;2023-05-21T06:41:49;10.80;;;3.78;;
52208;SDS011;38507;53.132;6.394;2023-05-21T06:44:15;11.30;;;3.63;;
52208;SDS011;38507;53.132;6.394;2023-05-21T06:46:41;9.38;;;3.08;;
52208;SDS011;38507;53.132;6.394;2023-05-21T06:49:06;10.65;;;3.90;;
52208;SDS011;38507;53.132;6.394;2023-05-21T06:51:32;8.88;;;3.85;;
52208;SDS011;38507;53.132;6.394;2023-05-21T06:53:58;7.60;;;3.95;;
52208;SDS011;38507;53.132;6.394;2023-05-21T06:56:24;8.90;;;3.75;;
52208;SDS011;38507;53.132;6.394;2023-05-21T06:58:50;8.63;;;3.80;;
52208;SDS011;38507;53.132;6.394;2023-05-21T07:01:16;11.05;;;3.90;;
52208;SDS011;38507;53.132;6.394;2023-05-21T07:03:41;10.25;;;4.68;;
52208;SDS011;38507;53.132;6.394;2023-05-21T07:06:07;9.38;;;3.95;;
52208;SDS011;38507;53.132;6.394;2023-05-21T07:08:33;7.85;;;3.65;;
52208;SDS011;38507;53.132;6.394;2023-05-21T07:10:58;11.90;;;3.90;;
52208;SDS011;38507;53.132;6.394;2023-05-21T07:13:24;8.18;;;3.60;;
52208;SDS011;38507;53.132;6.394;2023-05-21T07:15:50;9.13;;;3.92;;
52208;SDS011;38507;53.132;6.394;2023-05-21T07:18:15;8.65;;;3.63;;
52208;SDS011;38507;53.132;6.394;2023-05-21T07:20:41;10.43;;;3.95;;
52208;SDS011;38507;53.132;6.394;2023-05-21T07:23:07;6.85;;;3.65;;
52208;SDS011;38507;53.132;6.394;2023-05-21T07:25:32;9.35;;;3.88;;
52208;SDS011;38507;53.132;6.394;2023-05-21T07:27:58;11.85;;;4.40;;
52208;SDS011;38507;53.132;6.394;2023-05-21T07:30:24;9.50;;;4.22;;
52208;SDS011;38507;53.132;6.394;2023-05-21T07:32:49;15.23;;;3.90;;
52208;SDS011;38507;53.132;6.394;2023-05-21T07:35:15;8.60;;;3.67;;
52208;SDS011;38507;53.132;6.394;2023-05-21T07:37:41;10.15;;;3.67;;
52208;SDS011;38507;53.132;6.394;2023-05-21T07:40:06;7.07;;;3.40;;
52208;SDS011;38507;53.132;6.394;2023-05-21T07:42:32;10.63;;;3.72;;
52208;SDS011;38507;53.132;6.394;2023-05-21T07:44:58;10.52;;;4.15;;
52208;SDS011;38507;53.132;6.394;2023-05-21T07:47:24;12.82;;;4.10;;
52208;SDS011;38507;53.132;6.394;2023-05-21T07:49:50;7.80;;;3.45;;
52208;SDS011;38507;53.132;6.394;2023-05-21T07:52:16;7.32;;;3.35;;
52208;SDS011;38507;53.132;6.394;2023-05-21T07:54:41;9.27;;;3.33;;
52208;SDS011;38507;53.132;6.394;2023-05-21T07:57:07;10.98;;;3.97;;
52208;SDS011;38507;53.132;6.394;2023-05-21T07:59:33;10.45;;;3.92;;
52208;SDS011;38507;53.132;6.394;2023-05-21T08:01:58;11.52;;;3.92;;
52208;SDS011;38507;53.132;6.394;2023-05-21T08:04:24;10.27;;;3.42;;
52208;SDS011;38507;53.132;6.394;2023-05-21T08:06:50;10.70;;;3.53;;
52208;SDS011;38507;53.132;6.394;2023-05-21T08:09:16;11.13;;;3.55;;
52208;SDS011;38507;53.132;6.394;2023-05-21T08:11:43;7.25;;;3.47;;
52208;SDS011;38507;53.132;6.394;2023-05-21T08:14:09;8.57;;;3.72;;
52208;SDS011;38507;53.132;6.394;2023-05-21T08:16:35;10.90;;;3.42;;
52208;SDS011;38507;53.132;6.394;2023-05-21T08:19:01;8.38;;;3.65;;
52208;SDS011;38507;53.132;6.394;2023-05-21T08:21:27;9.18;;;3.53;;
52208;SDS011;38507;53.132;6.394;2023-05-21T08:23:53;8.25;;;3.30;;
52208;SDS011;38507;53.132;6.394;2023-05-21T08:26:18;7.63;;;3.70;;
52208;SDS011;38507;53.132;6.394;2023-05-21T08:28:45;13.45;;;4.25;;
52208;SDS011;38507;53.132;6.394;2023-05-21T08:31:11;10.90;;;3.28;;
52208;SDS011;38507;53.132;6.394;2023-05-21T08:33:37;8.27;;;3.35;;
52208;SDS011;38507;53.132;6.394;2023-05-21T08:36:05;11.05;;;3.70;;
52208;SDS011;38507;53.132;6.394;2023-05-21T08:38:31;11.35;;;3.67;;
52208;SDS011;38507;53.132;6.394;2023-05-21T08:40:57;8.98;;;3.63;;
52208;SDS011;38507;53.132;6.394;2023-05-21T08:43:25;8.13;;;3.50;;
52208;SDS011;38507;53.132;6.394;2023-05-21T08:45:52;7.75;;;3.33;;
52208;SDS011;38507;53.132;6.394;2023-05-21T08:48:19;9.07;;;3.42;;
52208;SDS011;38507;53.132;6.394;2023-05-21T08:50:47;7.95;;;3.65;;
52208;SDS011;38507;53.132;6.394;2023-05-21T08:53:17;7.97;;;3.40;;
52208;SDS011;38507;53.132;6.394;2023-05-21T08:55:42;11.05;;;3.53;;
52208;SDS011;38507;53.132;6.394;2023-05-21T08:58:08;6.60;;;3.30;;
52208;SDS011;38507;53.132;6.394;2023-05-21T09:00:34;6.90;;;3.22;;
52208;SDS011;38507;53.132;6.394;2023-05-21T09:03:00;6.38;;;3.45;;
52208;SDS011;38507;53.132;6.394;2023-05-21T09:05:27;12.52;;;4.18;;
52208;SDS011;38507;53.132;6.394;2023-05-21T09:08:29;10.50;;;3.90;;
52208;SDS011;38507;53.132;6.394;2023-05-21T09:13:25;11.10;;;4.03;;
52208;SDS011;38507;53.132;6.394;2023-05-21T09:15:52;10.52;;;4.10;;
52208;SDS011;38507;53.132;6.394;2023-05-21T09:18:18;9.05;;;3.40;;
52208;SDS011;38507;53.132;6.394;2023-05-21T09:20:43;9.38;;;3.88;;
52208;SDS011;38507;53.132;6.394;2023-05-21T09:23:09;9.30;;;3.95;;
52208;SDS011;38507;53.132;6.394;2023-05-21T09:25:40;8.63;;;3.72;;
52208;SDS011;38507;53.132;6.394;2023-05-21T09:28:13;7.45;;;3.53;;
52208;SDS011;38507;53.132;6.394;2023-05-21T09:30:43;8.68;;;3.28;;
52208;SDS011;38507;53.132;6.394;2023-05-21T09:33:10;6.53;;;3.17;;
52208;SDS011;38507;53.132;6.394;2023-05-21T09:35:37;7.68;;;3.63;;
52208;SDS011;38507;53.132;6.394;2023-05-21T09:38:09;7.05;;;3.15;;
52208;SDS011;38507;53.132;6.394;2023-05-21T09:40:34;8.45;;;3.80;;
52208;SDS011;38507;53.132;6.394;2023-05-21T09:43:00;10.85;;;3.17;;
52208;SDS011;38507;53.132;6.394;2023-05-21T09:45:26;6.78;;;3.20;;
52208;SDS011;38507;53.132;6.394;2023-05-21T09:47:53;6.50;;;3.10;;
52208;SDS011;38507;53.132;6.394;2023-05-21T09:52:49;12.13;;;4.88;;
52208;SDS011;38507;53.132;6.394;2023-05-21T09:55:17;8.20;;;3.25;;
52208;SDS011;38507;53.132;6.394;2023-05-21T09:57:46;6.85;;;3.55;;
52208;SDS011;38507;53.132;6.394;2023-05-21T10:00:26;7.43;;;3.60;;
52208;SDS011;38507;53.132;6.394;2023-05-21T10:02:53;10.13;;;3.60;;
52208;SDS011;38507;53.132;6.394;2023-05-21T10:05:19;5.95;;;2.95;;
52208;SDS011;38507;53.132;6.394;2023-05-21T10:08:00;7.90;;;3.65;;
52208;SDS011;38507;53.132;6.394;2023-05-21T10:10:27;8.00;;;3.10;;
52208;SDS011;38507;53.132;6.394;2023-05-21T10:12:57;6.47;;;3.08;;
52208;SDS011;38507;53.132;6.394;2023-05-21T10:15:24;8.23;;;3.80;;
52208;SDS011;38507;53.132;6.394;2023-05-21T10:17:53;7.88;;;3.08;;
52208;SDS011;38507;53.132;6.394;2023-05-21T10:20:20;8.23;;;3.15;;
52208;SDS011;38507;53.132;6.394;2023-05-21T10:22:46;8.43;;;3.05;;
52208;SDS011;38507;53.132;6.394;2023-05-21T10:25:14;5.80;;;2.85;;
52208;SDS011;38507;53.132;6.394;2023-05-21T10:27:40;7.70;;;3.28;;
52208;SDS011;38507;53.132;6.394;2023-05-21T10:30:06;8.20;;;2.65;;
52208;SDS011;38507;53.132;6.394;2023-05-21T10:32:32;10.90;;;3.10;;
52208;SDS011;38507;53.132;6.394;2023-05-21T10:34:59;6.45;;;3.10;;
52208;SDS011;38507;53.132;6.394;2023-05-21T10:37:26;6.35;;;2.90;;
52208;SDS011;38507;53.132;6.394;2023-05-21T10:39:52;9.43;;;3.13;;
52208;SDS011;38507;53.132;6.394;2023-05-21T10:48:04;8.60;;;3.80;;
52208;SDS011;38507;53.132;6.394;2023-05-21T10:56:23;8.30;;;3.28;;
52208;SDS011;38507;53.132;6.394;2023-05-21T11:01:49;7.70;;;3.05;;
52208;SDS011;38507;53.132;6.394;2023-05-21T11:04:20;7.53;;;3.60;;
52208;SDS011;38507;53.132;6.394;2023-05-21T11:06:55;8.18;;;2.95;;
52208;SDS011;38507;53.132;6.394;2023-05-21T11:09:23;11.63;;;3.67;;
52208;SDS011;38507;53.132;6.394;2023-05-21T11:11:52;8.82;;;3.15;;
52208;SDS011;38507;53.132;6.394;2023-05-21T11:17:01;9.05;;;3.10;;
52208;SDS011;38507;53.132;6.394;2023-05-21T11:19:33;8.50;;;3.72;;
52208;SDS011;38507;53.132;6.394;2023-05-21T11:22:03;7.78;;;2.83;;
52208;SDS011;38507;53.132;6.394;2023-05-21T11:24:50;6.63;;;2.70;;
52208;SDS011;38507;53.132;6.394;2023-05-21T11:30:07;8.82;;;3.40;;
52208;SDS011;38507;53.132;6.394;2023-05-21T11:32:37;7.97;;;2.95;;
52208;SDS011;38507;53.132;6.394;2023-05-21T11:35:04;8.57;;;2.92;;
52208;SDS011;38507;53.132;6.394;2023-05-21T11:37:30;9.95;;;3.40;;
52208;SDS011;38507;53.132;6.394;2023-05-21T11:42:47;7.22;;;3.47;;
52208;SDS011;38507;53.132;6.394;2023-05-21T11:45:16;10.05;;;3.50;;
52208;SDS011;38507;53.132;6.394;2023-05-21T11:47:46;8.32;;;3.55;;
52208;SDS011;38507;53.132;6.394;2023-05-21T11:50:13;10.77;;;4.03;;
52208;SDS011;38507;53.132;6.394;2023-05-21T11:52:40;12.88;;;4.05;;
52208;SDS011;38507;53.132;6.394;2023-05-21T11:55:06;11.88;;;3.90;;
52208;SDS011;38507;53.132;6.394;2023-05-21T11:57:32;10.02;;;3.95;;
52208;SDS011;38507;53.132;6.394;2023-05-21T11:59:59;9.77;;;4.90;;
52208;SDS011;38507;53.132;6.394;2023-05-21T12:02:31;8.27;;;4.38;;
52208;SDS011;38507;53.132;6.394;2023-05-21T12:04:57;10.93;;;4.32;;
52208;SDS011;38507;53.132;6.394;2023-05-21T12:07:25;11.43;;;4.28;;
52208;SDS011;38507;53.132;6.394;2023-05-21T12:09:54;10.65;;;4.47;;
52208;SDS011;38507;53.132;6.394;2023-05-21T12:12:20;8.77;;;4.70;;
52208;SDS011;38507;53.132;6.394;2023-05-21T12:14:49;9.38;;;4.78;;
52208;SDS011;38507;53.132;6.394;2023-05-21T12:17:16;12.18;;;4.80;;
52208;SDS011;38507;53.132;6.394;2023-05-21T12:19:46;9.55;;;4.70;;
52208;SDS011;38507;53.132;6.394;2023-05-21T12:22:13;9.10;;;4.90;;
52208;SDS011;38507;53.132;6.394;2023-05-21T12:24:40;10.00;;;5.13;;
52208;SDS011;38507;53.132;6.394;2023-05-21T12:27:07;10.13;;;5.05;;
52208;SDS011;38507;53.132;6.394;2023-05-21T12:29:37;13.52;;;5.30;;
52208;SDS011;38507;53.132;6.394;2023-05-21T12:32:07;12.30;;;6.38;;
52208;SDS011;38507;53.132;6.394;2023-05-21T12:37:09;11.33;;;5.57;;
52208;SDS011;38507;53.132;6.394;2023-05-21T12:39:42;10.80;;;5.70;;
52208;SDS011;38507;53.132;6.394;2023-05-21T12:42:09;10.32;;;5.70;;
52208;SDS011;38507;53.132;6.394;2023-05-21T12:44:36;11.07;;;6.05;;
52208;SDS011;38507;53.132;6.394;2023-05-21T12:47:03;15.00;;;7.15;;
52208;SDS011;38507;53.132;6.394;2023-05-21T12:49:29;13.10;;;6.22;;
52208;SDS011;38507;53.132;6.394;2023-05-21T12:52:00;11.48;;;6.35;;
52208;SDS011;38507;53.132;6.394;2023-05-21T12:54:27;10.73;;;6.88;;
52208;SDS011;38507;53.132;6.394;2023-05-21T12:56:57;17.40;;;6.97;;
52208;SDS011;38507;53.132;6.394;2023-05-21T12:59:38;10.05;;;6.95;;
52208;SDS011;38507;53.132;6.394;2023-05-21T13:02:08;12.38;;;6.97;;
52208;SDS011;38507;53.132;6.394;2023-05-21T13:04:37;20.95;;;7.88;;
52208;SDS011;38507;53.132;6.394;2023-05-21T13:07:02;13.82;;;7.57;;
52208;SDS011;38507;53.132;6.394;2023-05-21T13:09:28;15.57;;;7.60;;
52208;SDS011;38507;53.132;6.394;2023-05-21T13:11:54;16.30;;;7.32;;
52208;SDS011;38507;53.132;6.394;2023-05-21T13:14:19;10.60;;;7.20;;
52208;SDS011;38507;53.132;6.394;2023-05-21T13:16:45;14.35;;;7.05;;
52208;SDS011;38507;53.132;6.394;2023-05-21T13:19:11;11.30;;;6.43;;
52208;SDS011;38507;53.132;6.394;2023-05-21T13:21:39;12.48;;;7.10;;
52208;SDS011;38507;53.132;6.394;2023-05-21T13:24:06;12.40;;;6.88;;
52208;SDS011;38507;53.132;6.394;2023-05-21T13:26:32;14.43;;;7.45;;
52208;SDS011;38507;53.132;6.394;2023-05-21T13:28:57;14.40;;;7.25;;
52208;SDS011;38507;53.132;6.394;2023-05-21T13:31:23;15.05;;;7.80;;
52208;SDS011;38507;53.132;6.394;2023-05-21T13:33:48;14.75;;;7.88;;
52208;SDS011;38507;53.132;6.394;2023-05-21T13:36:14;13.88;;;8.20;;
52208;SDS011;38507;53.132;6.394;2023-05-21T13:38:40;11.82;;;7.10;;
52208;SDS011;38507;53.132;6.394;2023-05-21T13:41:05;12.45;;;7.97;;
52208;SDS011;38507;53.132;6.394;2023-05-21T13:43:31;14.95;;;7.88;;
52208;SDS011;38507;53.132;6.394;2023-05-21T13:45:57;13.90;;;7.13;;
52208;SDS011;38507;53.132;6.394;2023-05-21T13:48:22;13.95;;;7.85;;
52208;SDS011;38507;53.132;6.394;2023-05-21T13:50:48;16.77;;;8.10;;
52208;SDS011;38507;53.132;6.394;2023-05-21T13:53:14;16.70;;;8.52;;
52208;SDS011;38507;53.132;6.394;2023-05-21T13:55:39;12.70;;;7.88;;
52208;SDS011;38507;53.132;6.394;2023-05-21T13:58:05;19.98;;;8.25;;
52208;SDS011;38507;53.132;6.394;2023-05-21T14:00:31;13.68;;;8.00;;
52208;SDS011;38507;53.132;6.394;2023-05-21T14:02:56;12.85;;;7.88;;
52208;SDS011;38507;53.132;6.394;2023-05-21T14:05:22;18.42;;;9.07;;
52208;SDS011;38507;53.132;6.394;2023-05-21T14:07:47;15.55;;;8.40;;
52208;SDS011;38507;53.132;6.394;2023-05-21T14:10:13;14.93;;;8.05;;
52208;SDS011;38507;53.132;6.394;2023-05-21T14:12:39;12.82;;;8.38;;
52208;SDS011;38507;53.132;6.394;2023-05-21T14:15:06;17.20;;;8.90;;
52208;SDS011;38507;53.132;6.394;2023-05-21T14:17:31;17.08;;;9.63;;
52208;SDS011;38507;53.132;6.394;2023-05-21T14:19:57;18.20;;;9.80;;
52208;SDS011;38507;53.132;6.394;2023-05-21T14:22:23;13.52;;;8.27;;
52208;SDS011;38507;53.132;6.394;2023-05-21T14:24:49;13.77;;;9.13;;
52208;SDS011;38507;53.132;6.394;2023-05-21T14:27:15;14.45;;;9.00;;
52208;SDS011;38507;53.132;6.394;2023-05-21T14:29:40;18.35;;;8.30;;
52208;SDS011;38507;53.132;6.394;2023-05-21T14:32:06;13.43;;;9.13;;
52208;SDS011;38507;53.132;6.394;2023-05-21T14:34:32;12.60;;;8.32;;
52208;SDS011;38507;53.132;6.394;2023-05-21T14:36:57;15.00;;;8.85;;
52208;SDS011;38507;53.132;6.394;2023-05-21T14:39:23;16.10;;;9.15;;
52208;SDS011;38507;53.132;6.394;2023-05-21T14:41:49;13.75;;;8.55;;
52208;SDS011;38507;53.132;6.394;2023-05-21T14:44:14;13.57;;;8.57;;
52208;SDS011;38507;53.132;6.394;2023-05-21T14:46:40;15.57;;;7.85;;
52208;SDS011;38507;53.132;6.394;2023-05-21T14:49:06;15.00;;;9.25;;
52208;SDS011;38507;53.132;6.394;2023-05-21T14:51:31;15.88;;;8.52;;
52208;SDS011;38507;53.132;6.394;2023-05-21T14:53:57;13.40;;;8.63;;
52208;SDS011;38507;53.132;6.394;2023-05-21T14:56:23;16.48;;;9.63;;
52208;SDS011;38507;53.132;6.394;2023-05-21T14:58:51;13.13;;;8.77;;
52208;SDS011;38507;53.132;6.394;2023-05-21T15:01:17;17.27;;;9.23;;
52208;SDS011;38507;53.132;6.394;2023-05-21T15:03:43;20.20;;;9.05;;
52208;SDS011;38507;53.132;6.394;2023-05-21T15:06:08;15.85;;;8.48;;
52208;SDS011;38507;53.132;6.394;2023-05-21T15:08:34;20.70;;;9.70;;
52208;SDS011;38507;53.132;6.394;2023-05-21T15:11:00;16.90;;;8.93;;